createdAt,value
2023-02-03T00:00:09.366Z,2.20
2023-02-03T00:03:00.297Z,2.10
2023-02-03T00:05:30.134Z,2.00
2023-02-03T00:07:58.719Z,2.40
2023-02-03T00:10:27.544Z,2.30
2023-02-03T00:12:57.827Z,2.80
2023-02-03T00:15:27.129Z,2.10
2023-02-03T00:17:55.210Z,1.90
2023-02-03T00:20:23.814Z,1.90
2023-02-03T00:22:52.370Z,2.20
2023-02-03T00:25:21.571Z,1.90
2023-02-03T00:27:49.862Z,1.80
2023-02-03T00:30:18.450Z,1.90
2023-02-03T00:32:46.496Z,1.90
2023-02-03T00:35:14.882Z,2.20
2023-02-03T00:37:43.353Z,2.00
2023-02-03T00:40:12.447Z,2.40
2023-02-03T00:42:40.663Z,2.00
2023-02-03T00:45:09.504Z,2.30
2023-02-03T00:47:37.632Z,2.10
2023-02-03T00:50:07.292Z,2.10
2023-02-03T00:52:36.695Z,2.30
2023-02-03T00:55:06.865Z,1.80
2023-02-03T00:57:35.015Z,2.00
2023-02-03T01:00:04.507Z,2.00
2023-02-03T01:02:32.929Z,1.80
2023-02-03T01:05:01.259Z,3.00
2023-02-03T01:07:33.174Z,2.50
2023-02-03T01:10:01.237Z,2.60
2023-02-03T01:12:31.397Z,2.60
2023-02-03T01:15:00.246Z,2.70
2023-02-03T01:17:28.359Z,2.40
2023-02-03T01:19:56.738Z,2.40
2023-02-03T01:22:25.423Z,2.10
2023-02-03T01:24:53.498Z,2.70
2023-02-03T01:27:21.865Z,2.20
2023-02-03T01:29:49.956Z,2.50
2023-02-03T01:32:18.261Z,2.50
2023-02-03T01:34:46.286Z,2.40
2023-02-03T01:37:17.335Z,2.10
2023-02-03T01:39:45.375Z,2.70
2023-02-03T01:42:15.434Z,2.30
2023-02-03T01:44:52.322Z,2.60
2023-02-03T01:47:23.498Z,2.10
2023-02-03T01:50:06.093Z,2.70
2023-02-03T01:52:35.403Z,2.20
2023-02-03T01:55:08.220Z,2.10
2023-02-03T01:57:43.621Z,2.50
2023-02-03T02:00:12.752Z,2.20
2023-02-03T02:02:46.648Z,2.10
2023-02-03T02:05:25.553Z,2.60
2023-02-03T02:07:55.069Z,2.40
2023-02-03T02:10:23.338Z,2.50
2023-02-03T02:12:52.353Z,2.00
2023-02-03T02:15:24.718Z,2.20
2023-02-03T02:18:28.682Z,2.60
2023-02-03T02:21:22.950Z,3.00
2023-02-03T02:24:18.382Z,2.90
2023-02-03T02:27:01.797Z,3.00
2023-02-03T02:32:28.858Z,2.30
2023-02-03T02:35:14.957Z,2.30
2023-02-03T02:38:20.403Z,3.10
2023-02-03T02:41:05.839Z,2.20
2023-02-03T02:43:38.660Z,2.40
2023-02-03T02:46:10.872Z,2.40
2023-02-03T02:48:59.425Z,2.60
2023-02-03T02:51:29.769Z,2.30
2023-02-03T02:54:06.132Z,2.30
2023-02-03T02:56:36.981Z,2.20
2023-02-03T02:59:07.403Z,2.10
2023-02-03T03:01:35.562Z,2.30
2023-02-03T03:04:07.591Z,2.20
2023-02-03T03:06:40.774Z,2.00
2023-02-03T03:09:38.748Z,2.50
2023-02-03T03:12:19.781Z,2.20
2023-02-03T03:14:59.139Z,2.80
2023-02-03T03:17:57.640Z,2.60
2023-02-03T03:20:27.964Z,2.60
2023-02-03T03:23:08.219Z,2.00
2023-02-03T03:26:13.043Z,2.30
2023-02-03T03:28:45.306Z,2.50
2023-02-03T03:31:13.705Z,2.30
2023-02-03T03:33:42.579Z,2.00
2023-02-03T03:36:24.074Z,2.10
2023-02-03T03:39:10.254Z,2.10
2023-02-03T03:41:47.869Z,6.50
2023-02-03T03:44:19.530Z,3.00
2023-02-03T03:46:57.213Z,7.60
2023-02-03T03:49:27.449Z,9.30
2023-02-03T03:52:00.851Z,3.30
2023-02-03T03:54:32.398Z,9.70
2023-02-03T03:57:26.864Z,5.10
2023-02-03T03:59:55.463Z,5.50
2023-02-03T04:02:24.723Z,2.20
2023-02-03T04:04:54.965Z,2.20
2023-02-03T04:07:23.110Z,3.50
2023-02-03T04:09:51.147Z,1.90
2023-02-03T04:12:23.738Z,1.90
2023-02-03T04:14:51.777Z,3.00
2023-02-03T04:17:20.491Z,3.50
2023-02-03T04:19:49.233Z,4.90
2023-02-03T04:22:17.240Z,9.20
2023-02-03T04:24:45.266Z,3.10
2023-02-03T04:27:13.957Z,4.00
2023-02-03T04:29:42.437Z,2.50
2023-02-03T04:32:10.531Z,3.10
2023-02-03T04:34:38.883Z,2.50
2023-02-03T04:37:06.950Z,2.00
2023-02-03T04:39:34.934Z,2.90
2023-02-03T04:42:03.419Z,2.50
2023-02-03T04:44:31.581Z,3.20
2023-02-03T04:46:59.567Z,2.20
2023-02-03T04:49:27.924Z,2.10
2023-02-03T04:51:56.196Z,1.80
2023-02-03T04:54:24.286Z,1.90
2023-02-03T04:56:52.444Z,1.80
2023-02-03T04:59:20.718Z,2.00
2023-02-03T05:01:48.661Z,2.20
2023-02-03T05:04:16.962Z,1.70
2023-02-03T05:06:45.001Z,1.60
2023-02-03T05:09:13.113Z,1.60
2023-02-03T05:11:41.589Z,5.10
2023-02-03T05:14:09.786Z,3.20
2023-02-03T05:16:37.879Z,1.80
2023-02-03T05:19:06.311Z,1.80
2023-02-03T05:21:34.694Z,1.50
2023-02-03T05:24:03.992Z,11.10
2023-02-03T05:26:31.967Z,7.10
2023-02-03T05:28:59.987Z,5.90
2023-02-03T05:31:28.363Z,5.80
2023-02-03T05:33:56.582Z,3.70
2023-02-03T05:36:24.881Z,4.10
2023-02-03T05:38:53.175Z,12.90
2023-02-03T05:41:40.259Z,4.10
2023-02-03T05:44:08.422Z,2.60
2023-02-03T05:46:36.493Z,1.80
2023-02-03T05:49:04.567Z,2.70
2023-02-03T05:51:32.533Z,5.00
2023-02-03T05:54:00.646Z,4.00
2023-02-03T05:56:28.731Z,3.30
2023-02-03T05:58:56.824Z,4.00
2023-02-03T06:01:25.539Z,3.80
2023-02-03T06:03:53.701Z,1.70
2023-02-03T06:06:22.012Z,2.10
2023-02-03T06:08:52.506Z,4.30
2023-02-03T06:11:20.819Z,5.90
2023-02-03T06:13:48.972Z,5.20
2023-02-03T06:16:17.370Z,2.50
2023-02-03T06:18:46.537Z,3.40
2023-02-03T06:21:14.608Z,2.80
2023-02-03T06:23:42.781Z,2.90
2023-02-03T06:26:11.063Z,2.50
2023-02-03T06:28:39.242Z,2.00
2023-02-03T06:31:07.550Z,3.20
2023-02-03T06:33:36.397Z,2.40
2023-02-03T06:36:04.809Z,2.80
2023-02-03T06:38:32.957Z,7.80
2023-02-03T06:41:01.051Z,2.60
2023-02-03T06:43:29.174Z,2.00
2023-02-03T06:45:57.323Z,5.90
2023-02-03T06:48:25.588Z,31.70
2023-02-03T06:50:53.848Z,13.40
2023-02-03T06:53:21.825Z,3.00
2023-02-03T06:55:49.900Z,12.50
2023-02-03T06:58:18.125Z,3.30
2023-02-03T07:00:46.303Z,10.00
2023-02-03T07:03:14.707Z,6.00
2023-02-03T07:05:43.263Z,2.80
2023-02-03T07:08:11.533Z,5.60
2023-02-03T07:10:39.756Z,4.10
2023-02-03T07:13:08.497Z,2.30
2023-02-03T07:15:36.624Z,2.10
2023-02-03T07:18:04.806Z,1.90
2023-02-03T07:20:33.124Z,4.00
2023-02-03T07:23:01.151Z,2.80
2023-02-03T07:25:29.381Z,2.20
2023-02-03T07:27:57.703Z,2.50
2023-02-03T07:30:26.516Z,2.10
2023-02-03T07:32:54.944Z,2.20
2023-02-03T07:35:23.187Z,2.70
2023-02-03T07:37:51.440Z,2.50
2023-02-03T07:40:20.536Z,2.30
2023-02-03T07:42:50.284Z,2.40
2023-02-03T07:45:19.607Z,1.90
2023-02-03T07:47:47.852Z,4.80
2023-02-03T07:50:16.079Z,3.20
2023-02-03T07:52:44.220Z,3.90
2023-02-03T07:55:12.279Z,3.50
2023-02-03T07:57:43.822Z,2.90
2023-02-03T08:00:15.010Z,4.50
2023-02-03T08:02:43.635Z,5.00
2023-02-03T08:05:12.707Z,2.70
2023-02-03T08:07:41.013Z,2.20
2023-02-03T08:10:12.247Z,1.80
2023-02-03T08:12:40.543Z,1.70
2023-02-03T08:15:10.391Z,1.80
2023-02-03T08:17:40.468Z,1.70
2023-02-03T08:20:10.379Z,3.20
2023-02-03T08:22:38.657Z,2.40
2023-02-03T08:25:07.513Z,2.20
2023-02-03T08:27:35.747Z,1.60
2023-02-03T08:30:04.482Z,2.30
2023-02-03T08:32:34.357Z,3.70
2023-02-03T08:35:02.799Z,3.00
2023-02-03T08:37:32.640Z,2.20
2023-02-03T08:40:01.668Z,1.90
2023-02-03T08:42:33.156Z,1.90
2023-02-03T08:45:03.342Z,2.40
2023-02-03T08:47:32.895Z,3.40
2023-02-03T08:50:01.166Z,3.20
2023-02-03T08:52:29.434Z,2.20
2023-02-03T08:54:57.816Z,1.10
2023-02-03T08:57:25.884Z,1.60
2023-02-03T08:59:54.851Z,2.10
2023-02-03T09:02:23.051Z,2.20
2023-02-03T09:04:52.142Z,2.50
2023-02-03T09:07:20.522Z,1.40
2023-02-03T09:09:48.802Z,2.40
2023-02-03T09:12:17.463Z,5.40
2023-02-03T09:14:45.765Z,1.70
2023-02-03T09:17:14.156Z,2.10
2023-02-03T09:19:42.233Z,2.10
2023-02-03T09:22:10.338Z,2.20
2023-02-03T09:24:38.765Z,2.00
2023-02-03T09:27:06.816Z,1.80
2023-02-03T09:29:35.028Z,1.50
2023-02-03T09:32:07.989Z,1.70
2023-02-03T09:34:36.882Z,1.80
2023-02-03T09:37:05.490Z,2.00
2023-02-03T09:39:33.948Z,2.60
2023-02-03T09:42:17.317Z,1.60
2023-02-03T09:44:51.637Z,2.10
2023-02-03T09:47:29.106Z,2.40
2023-02-03T09:50:00.634Z,2.80
2023-02-03T09:52:36.099Z,4.50
2023-02-03T09:55:43.104Z,3.20
2023-02-03T09:58:21.447Z,3.10
2023-02-03T10:01:13.442Z,3.10
2023-02-03T10:04:10.773Z,2.80
2023-02-03T10:06:45.673Z,1.60
2023-02-03T10:09:16.637Z,2.10
2023-02-03T10:12:22.480Z,2.40
2023-02-03T10:15:15.479Z,2.00
2023-02-03T10:17:53.274Z,2.20
2023-02-03T10:20:38.934Z,1.60
2023-02-03T10:23:20.656Z,1.70
2023-02-03T10:25:57.322Z,1.70
2023-02-03T10:28:40.224Z,1.80
2023-02-03T10:31:21.513Z,2.30
2023-02-03T10:33:59.198Z,1.50
2023-02-03T10:36:57.215Z,1.80
2023-02-03T10:39:39.945Z,1.70
2023-02-03T10:42:10.917Z,1.40
2023-02-03T10:44:42.917Z,1.40
2023-02-03T10:47:23.863Z,1.60
2023-02-03T10:49:54.889Z,1.50
2023-02-03T10:52:31.938Z,1.70
2023-02-03T10:55:06.728Z,1.90
2023-02-03T10:57:39.519Z,1.10
2023-02-03T11:00:30.117Z,1.30
2023-02-03T11:03:08.813Z,1.20
2023-02-03T11:05:37.251Z,1.20
2023-02-03T11:08:15.615Z,1.80
2023-02-03T11:10:44.395Z,2.10
2023-02-03T11:13:19.759Z,1.20
2023-02-03T11:16:13.973Z,1.50
2023-02-03T11:18:48.239Z,1.40
2023-02-03T11:21:17.922Z,1.50
2023-02-03T11:24:01.779Z,1.10
2023-02-03T11:26:35.380Z,1.20
2023-02-03T11:29:08.277Z,2.10
2023-02-03T11:31:37.960Z,1.70
2023-02-03T11:34:17.004Z,1.30
2023-02-03T11:36:45.130Z,1.60
2023-02-03T11:39:19.534Z,1.30
2023-02-03T11:41:48.770Z,1.70
2023-02-03T11:44:31.283Z,1.50
2023-02-03T11:47:07.796Z,2.60
2023-02-03T11:49:57.404Z,2.10
2023-02-03T11:53:01.901Z,2.20
2023-02-03T11:55:48.576Z,3.00
2023-02-03T11:58:38.606Z,2.10
2023-02-03T12:01:32.639Z,2.30
2023-02-03T12:04:38.330Z,1.80
2023-02-03T12:07:35.062Z,2.60
2023-02-03T12:10:09.453Z,2.10
2023-02-03T12:12:46.028Z,2.00
2023-02-03T12:15:39.288Z,2.40
2023-02-03T12:18:20.262Z,1.70
2023-02-03T12:21:17.730Z,2.30
2023-02-03T12:24:25.537Z,3.80
2023-02-03T12:27:37.361Z,2.10
2023-02-03T12:30:24.642Z,2.40
2023-02-03T12:33:00.682Z,2.80
2023-02-03T12:35:56.026Z,3.10
2023-02-03T12:38:39.341Z,3.40
2023-02-03T12:41:18.601Z,3.40
2023-02-03T12:43:50.887Z,2.80
2023-02-03T12:46:40.677Z,3.10
2023-02-03T12:49:40.140Z,2.90
2023-02-03T12:52:11.068Z,3.50
2023-02-03T12:54:39.017Z,3.60
2023-02-03T12:57:40.081Z,2.60
2023-02-03T13:00:15.813Z,3.40
2023-02-03T13:03:07.469Z,2.80
2023-02-03T13:05:43.672Z,2.80
2023-02-03T13:08:51.321Z,3.00
2023-02-03T13:11:37.618Z,3.30
2023-02-03T13:14:32.107Z,3.20
2023-02-03T13:17:24.343Z,5.60
2023-02-03T13:19:57.411Z,3.30
2023-02-03T13:22:25.661Z,3.40
2023-02-03T13:25:04.737Z,2.50
2023-02-03T13:28:11.664Z,4.50
2023-02-03T13:30:52.286Z,3.10
2023-02-03T13:33:59.127Z,2.10
2023-02-03T13:36:30.499Z,2.70
2023-02-03T13:39:24.799Z,2.30
2023-02-03T13:41:57.082Z,2.30
2023-02-03T13:44:29.639Z,2.00
2023-02-03T13:46:59.421Z,2.30
2023-02-03T13:49:33.524Z,2.50
2023-02-03T13:52:02.151Z,4.10
2023-02-03T13:54:33.401Z,2.20
2023-02-03T13:57:22.242Z,2.60
2023-02-03T13:59:50.536Z,1.90
2023-02-03T14:02:21.684Z,2.50
2023-02-03T14:04:58.370Z,2.40
2023-02-03T14:07:36.861Z,2.70
2023-02-03T14:10:16.872Z,1.90
2023-02-03T14:12:51.461Z,1.40
2023-02-03T14:15:31.564Z,2.00
2023-02-03T14:18:34.983Z,2.40
2023-02-03T14:21:17.176Z,2.40
2023-02-03T14:23:55.660Z,2.00
2023-02-03T14:26:52.356Z,1.90
2023-02-03T14:29:27.589Z,2.30
2023-02-03T14:32:06.338Z,2.30
2023-02-03T14:34:46.736Z,1.80
2023-02-03T14:37:29.502Z,1.80
2023-02-03T14:40:00.631Z,2.30
2023-02-03T14:42:50.508Z,2.10
2023-02-03T14:45:41.008Z,2.30
2023-02-03T14:48:15.148Z,2.10
2023-02-03T14:51:05.154Z,2.80
2023-02-03T14:53:49.863Z,2.80
2023-02-03T14:56:18.038Z,1.90
2023-02-03T14:58:53.405Z,2.80
2023-02-03T15:01:35.451Z,5.50
2023-02-03T15:04:12.487Z,6.30
2023-02-03T15:06:43.315Z,3.00
2023-02-03T15:09:24.890Z,2.20
2023-02-03T15:11:53.826Z,3.60
2023-02-03T15:14:22.171Z,2.60
2023-02-03T15:16:59.958Z,2.10
2023-02-03T15:19:34.327Z,2.10
2023-02-03T15:22:02.877Z,2.40
2023-02-03T15:24:37.182Z,2.50
2023-02-03T15:27:05.341Z,4.60
2023-02-03T15:29:36.296Z,4.20
2023-02-03T15:32:10.437Z,2.10
2023-02-03T15:34:59.294Z,1.40
2023-02-03T15:37:56.197Z,1.80
2023-02-03T15:40:35.838Z,4.20
2023-02-03T15:43:27.678Z,1.30
2023-02-03T15:45:55.945Z,1.80
2023-02-03T15:48:45.334Z,3.10
2023-02-03T15:51:37.591Z,3.00
2023-02-03T15:54:23.277Z,3.20
2023-02-03T15:56:58.588Z,4.70
2023-02-03T15:59:40.166Z,2.10
2023-02-03T16:02:46.342Z,5.20
2023-02-03T16:05:24.640Z,2.70
2023-02-03T16:07:53.045Z,2.20
2023-02-03T16:10:34.433Z,2.10
2023-02-03T16:13:21.222Z,4.00
2023-02-03T16:16:17.534Z,3.90
2023-02-03T16:18:53.227Z,6.50
2023-02-03T16:21:51.629Z,11.10
2023-02-03T16:24:35.199Z,8.40
2023-02-03T16:27:30.871Z,7.90
2023-02-03T16:30:26.643Z,2.90
2023-02-03T16:33:28.896Z,2.70
2023-02-03T16:36:18.192Z,2.40
2023-02-03T16:39:06.646Z,5.20
2023-02-03T16:41:54.069Z,4.10
2023-02-03T16:44:41.282Z,7.20
2023-02-03T16:47:43.163Z,4.40
2023-02-03T16:50:41.775Z,6.90
2023-02-03T16:53:19.710Z,8.40
2023-02-03T16:55:48.787Z,7.00
2023-02-03T16:58:17.113Z,6.20
2023-02-03T17:00:47.415Z,4.20
2023-02-03T17:03:21.964Z,4.60
2023-02-03T17:05:51.572Z,6.10
2023-02-03T17:08:23.212Z,8.50
2023-02-03T17:10:52.169Z,5.00
2023-02-03T17:13:22.344Z,4.00
2023-02-03T17:15:54.644Z,4.60
2023-02-03T17:18:23.091Z,4.00
2023-02-03T17:20:51.877Z,9.50
2023-02-03T17:23:20.455Z,6.60
2023-02-03T17:25:50.305Z,7.00
2023-02-03T17:28:18.605Z,12.20
2023-02-03T17:30:56.446Z,15.20
2023-02-03T17:33:24.913Z,7.60
2023-02-03T17:36:01.188Z,11.40
2023-02-03T17:38:30.180Z,15.30
2023-02-03T17:54:48.398Z,6.20
2023-02-03T17:57:16.569Z,3.60
2023-02-03T17:59:44.748Z,3.00
2023-02-03T18:02:12.776Z,2.90
2023-02-03T18:04:42.410Z,2.50
2023-02-03T18:07:10.580Z,13.30
2023-02-03T18:09:38.627Z,11.40
2023-02-03T18:12:07.116Z,11.70
2023-02-03T18:14:35.213Z,12.40
2023-02-03T18:17:03.362Z,4.80
2023-02-03T18:19:31.658Z,6.40
2023-02-03T18:22:02.482Z,9.80
2023-02-03T18:24:30.963Z,8.10
2023-02-03T18:27:00.676Z,6.50
2023-02-03T18:29:31.194Z,7.10
2023-02-03T18:31:59.367Z,4.60
2023-02-03T18:34:27.417Z,6.10
2023-02-03T18:36:55.709Z,6.50
2023-02-03T18:39:23.772Z,5.80
2023-02-03T18:41:51.980Z,4.00
2023-02-03T18:44:20.462Z,1.90
2023-02-03T18:46:48.932Z,3.30
2023-02-03T18:49:17.019Z,1.20
2023-02-03T18:51:45.198Z,3.70
2023-02-03T18:54:13.492Z,2.60
2023-02-03T18:56:41.760Z,4.00
2023-02-03T18:59:11.387Z,2.70
2023-02-03T19:01:39.833Z,2.10
2023-02-03T19:04:08.504Z,8.20
2023-02-03T19:06:36.556Z,2.10
2023-02-03T19:09:06.010Z,1.60
2023-02-03T19:11:35.207Z,1.00
2023-02-03T19:14:03.983Z,1.00
2023-02-03T19:16:31.997Z,0.30
2023-02-03T19:19:00.229Z,0.50
2023-02-03T19:21:28.392Z,1.50
2023-02-03T19:23:56.466Z,0.80
2023-02-03T19:26:24.647Z,0.30
2023-02-03T19:28:52.824Z,0.60
2023-02-03T19:31:20.925Z,0.70
2023-02-03T19:33:49.464Z,2.10
2023-02-03T19:36:17.843Z,1.20
2023-02-03T19:38:45.953Z,0.50
2023-02-03T19:41:14.000Z,0.90
2023-02-03T19:43:41.978Z,0.50
2023-02-03T19:46:10.246Z,0.20
2023-02-03T19:48:39.838Z,0.20
2023-02-03T19:51:08.015Z,0.30
2023-02-03T19:53:36.811Z,0.10
2023-02-03T19:56:05.590Z,0.20
2023-02-03T19:58:33.647Z,0.70
2023-02-03T20:01:01.730Z,1.70
2023-02-03T20:03:30.316Z,0.30
2023-02-03T20:06:00.082Z,0.40
2023-02-03T20:08:29.328Z,0.10
2023-02-03T20:10:57.537Z,0.20
2023-02-03T20:13:25.771Z,0.30
2023-02-03T20:15:54.077Z,0.30
2023-02-03T20:18:22.393Z,0.10
2023-02-03T20:20:55.886Z,0.20
2023-02-03T20:25:53.807Z,0.10
2023-02-03T20:28:24.373Z,0.20
2023-02-03T20:30:56.708Z,1.00
2023-02-03T20:33:27.824Z,0.10
2023-02-03T20:35:57.345Z,0.10
2023-02-03T20:38:25.731Z,0.30
2023-02-03T20:40:53.742Z,0.20
2023-02-03T20:43:27.494Z,0.40
2023-02-03T20:45:56.008Z,0.20
2023-02-03T20:48:25.714Z,0.40
2023-02-03T20:50:54.079Z,0.80
2023-02-03T20:53:25.032Z,0.40
2023-02-03T20:55:58.731Z,0.10
2023-02-03T20:58:31.021Z,0.20
2023-02-03T21:00:59.217Z,0.40
2023-02-03T21:03:46.001Z,0.80
2023-02-03T21:06:21.038Z,0.60
2023-02-03T21:08:49.165Z,0.10
2023-02-03T21:11:20.860Z,0.10
2023-02-03T21:13:50.014Z,0.00
2023-02-03T21:16:27.686Z,0.10
2023-02-03T21:19:00.453Z,0.10
2023-02-03T21:21:34.949Z,0.30
2023-02-03T21:24:24.244Z,0.20
2023-02-03T21:26:53.408Z,0.20
2023-02-03T21:29:36.801Z,0.30
2023-02-03T21:32:13.505Z,0.20
2023-02-03T21:34:46.875Z,0.00
2023-02-03T21:37:20.814Z,0.10
2023-02-03T21:39:49.662Z,0.00
2023-02-03T21:42:41.936Z,0.00
2023-02-03T21:45:22.609Z,0.20
2023-02-03T21:47:52.620Z,0.00
2023-02-03T21:50:31.841Z,0.20
2023-02-03T21:53:28.086Z,0.00
2023-02-03T21:55:56.295Z,0.20
2023-02-03T21:58:30.936Z,0.10
2023-02-03T22:01:02.402Z,0.20
2023-02-03T22:03:40.155Z,0.50
2023-02-03T22:06:08.506Z,0.20
2023-02-03T22:08:47.849Z,0.30
2023-02-03T22:11:18.720Z,0.30
2023-02-03T22:13:47.800Z,0.30
2023-02-03T22:16:17.384Z,0.20
2023-02-03T22:18:47.235Z,0.10
2023-02-03T22:21:17.462Z,0.10
2023-02-03T22:23:46.431Z,0.10
2023-02-03T22:26:15.792Z,0.10
2023-02-03T22:28:44.537Z,0.10
2023-02-03T22:31:13.754Z,0.20
2023-02-03T22:33:43.093Z,0.10
2023-02-03T22:36:11.940Z,0.10
2023-02-03T22:38:41.282Z,0.10
2023-02-03T22:41:13.191Z,0.20
2023-02-03T22:43:41.697Z,0.10
2023-02-03T22:46:09.958Z,0.10
2023-02-03T22:48:38.178Z,0.10
2023-02-03T22:51:06.687Z,0.10
2023-02-03T22:53:35.062Z,0.10
2023-02-03T22:56:03.264Z,0.20
2023-02-03T22:58:31.478Z,0.20
2023-02-03T23:00:59.515Z,0.20
2023-02-03T23:03:27.805Z,0.50
2023-02-03T23:05:56.558Z,0.50
2023-02-03T23:08:25.205Z,1.10
2023-02-03T23:10:53.525Z,0.60
2023-02-03T23:13:21.575Z,0.40
2023-02-03T23:15:49.855Z,1.10
2023-02-03T23:18:17.997Z,1.50
2023-02-03T23:20:45.967Z,0.80
2023-02-03T23:23:14.547Z,0.40
2023-02-03T23:25:42.946Z,1.50
2023-02-03T23:28:11.344Z,1.30
2023-02-03T23:30:39.390Z,1.20
2023-02-03T23:33:08.281Z,1.70
2023-02-03T23:35:45.749Z,0.80
2023-02-03T23:38:15.806Z,1.30
2023-02-03T23:40:44.212Z,2.10
2023-02-03T23:43:12.297Z,0.90
2023-02-03T23:45:41.322Z,0.50
2023-02-03T23:48:09.522Z,1.80
2023-02-03T23:50:37.671Z,0.30
2023-02-03T23:53:05.895Z,3.80
2023-02-03T23:55:34.114Z,0.30
2023-02-03T23:58:02.390Z,0.20
